sensor_id;sensor_type;location;lat;lon;timestamp;P1;durP1;ratioP1;P2;durP2;ratioP2
64520;SDS011;50896;46.714;17.322;2022-10-16T00:01:23;18.83;;;10.13;;
64520;SDS011;50896;46.714;17.322;2022-10-16T00:03:52;18.33;;;11.07;;
64520;SDS011;50896;46.714;17.322;2022-10-16T00:06:19;14.00;;;9.90;;
64520;SDS011;50896;46.714;17.322;2022-10-16T00:08:48;14.43;;;9.60;;
64520;SDS011;50896;46.714;17.322;2022-10-16T00:11:19;17.92;;;9.85;;
64520;SDS011;50896;46.714;17.322;2022-10-16T00:13:48;12.30;;;9.10;;
64520;SDS011;50896;46.714;17.322;2022-10-16T00:16:16;13.05;;;10.02;;
64520;SDS011;50896;46.714;17.322;2022-10-16T00:18:44;14.98;;;10.23;;
64520;SDS011;50896;46.714;17.322;2022-10-16T00:21:12;15.98;;;10.32;;
64520;SDS011;50896;46.714;17.322;2022-10-16T00:23:42;12.90;;;9.32;;
64520;SDS011;50896;46.714;17.322;2022-10-16T00:26:11;14.68;;;9.60;;
64520;SDS011;50896;46.714;17.322;2022-10-16T00:28:40;14.68;;;10.02;;
64520;SDS011;50896;46.714;17.322;2022-10-16T00:31:08;13.02;;;9.77;;
64520;SDS011;50896;46.714;17.322;2022-10-16T00:36:05;17.00;;;9.80;;
64520;SDS011;50896;46.714;17.322;2022-10-16T00:38:33;15.48;;;10.15;;
64520;SDS011;50896;46.714;17.322;2022-10-16T00:41:00;14.82;;;10.65;;
64520;SDS011;50896;46.714;17.322;2022-10-16T00:49:12;15.68;;;10.48;;
64520;SDS011;50896;46.714;17.322;2022-10-16T00:54:20;15.88;;;11.55;;
64520;SDS011;50896;46.714;17.322;2022-10-16T00:56:51;18.80;;;12.23;;
64520;SDS011;50896;46.714;17.322;2022-10-16T00:59:28;15.27;;;11.50;;
64520;SDS011;50896;46.714;17.322;2022-10-16T01:01:57;17.23;;;11.55;;
64520;SDS011;50896;46.714;17.322;2022-10-16T01:04:25;16.90;;;11.77;;
64520;SDS011;50896;46.714;17.322;2022-10-16T01:07:06;16.38;;;12.13;;
64520;SDS011;50896;46.714;17.322;2022-10-16T01:09:55;17.90;;;12.15;;
64520;SDS011;50896;46.714;17.322;2022-10-16T01:12:50;18.08;;;12.00;;
64520;SDS011;50896;46.714;17.322;2022-10-16T01:18:07;18.75;;;11.43;;
64520;SDS011;50896;46.714;17.322;2022-10-16T01:20:37;19.17;;;11.25;;
64520;SDS011;50896;46.714;17.322;2022-10-16T01:23:19;22.15;;;12.55;;
64520;SDS011;50896;46.714;17.322;2022-10-16T01:31:44;18.80;;;12.05;;
64520;SDS011;50896;46.714;17.322;2022-10-16T01:34:50;17.75;;;11.98;;
64520;SDS011;50896;46.714;17.322;2022-10-16T01:37:35;22.38;;;13.43;;
64520;SDS011;50896;46.714;17.322;2022-10-16T01:40:11;19.13;;;13.48;;
64520;SDS011;50896;46.714;17.322;2022-10-16T01:42:41;21.48;;;13.65;;
64520;SDS011;50896;46.714;17.322;2022-10-16T01:45:12;24.52;;;14.10;;
64520;SDS011;50896;46.714;17.322;2022-10-16T01:47:41;17.45;;;12.63;;
64520;SDS011;50896;46.714;17.322;2022-10-16T01:50:10;20.10;;;14.57;;
64520;SDS011;50896;46.714;17.322;2022-10-16T01:52:39;22.50;;;14.07;;
64520;SDS011;50896;46.714;17.322;2022-10-16T01:55:10;26.70;;;14.98;;
64520;SDS011;50896;46.714;17.322;2022-10-16T01:57:41;23.63;;;14.02;;
64520;SDS011;50896;46.714;17.322;2022-10-16T02:00:13;19.60;;;14.43;;
64520;SDS011;50896;46.714;17.322;2022-10-16T02:08:00;23.33;;;14.60;;
64520;SDS011;50896;46.714;17.322;2022-10-16T02:10:31;23.50;;;15.18;;
64520;SDS011;50896;46.714;17.322;2022-10-16T02:13:20;24.23;;;16.02;;
64520;SDS011;50896;46.714;17.322;2022-10-16T02:18:15;19.67;;;13.88;;
64520;SDS011;50896;46.714;17.322;2022-10-16T02:20:44;23.67;;;15.95;;
64520;SDS011;50896;46.714;17.322;2022-10-16T02:23:21;24.58;;;15.73;;
64520;SDS011;50896;46.714;17.322;2022-10-16T02:25:55;22.60;;;15.90;;
64520;SDS011;50896;46.714;17.322;2022-10-16T02:28:29;22.85;;;16.10;;
64520;SDS011;50896;46.714;17.322;2022-10-16T02:31:07;25.20;;;17.00;;
64520;SDS011;50896;46.714;17.322;2022-10-16T02:33:38;29.60;;;17.65;;
64520;SDS011;50896;46.714;17.322;2022-10-16T02:36:09;27.40;;;18.42;;
64520;SDS011;50896;46.714;17.322;2022-10-16T02:38:36;34.20;;;18.63;;
64520;SDS011;50896;46.714;17.322;2022-10-16T02:41:05;28.58;;;19.23;;
64520;SDS011;50896;46.714;17.322;2022-10-16T02:43:32;26.65;;;19.02;;
64520;SDS011;50896;46.714;17.322;2022-10-16T02:46:00;32.97;;;20.13;;
64520;SDS011;50896;46.714;17.322;2022-10-16T02:48:27;25.63;;;18.77;;
64520;SDS011;50896;46.714;17.322;2022-10-16T02:50:54;27.33;;;20.40;;
64520;SDS011;50896;46.714;17.322;2022-10-16T02:53:20;26.70;;;18.92;;
64520;SDS011;50896;46.714;17.322;2022-10-16T02:55:47;29.48;;;19.70;;
64520;SDS011;50896;46.714;17.322;2022-10-16T02:58:14;28.63;;;20.20;;
64520;SDS011;50896;46.714;17.322;2022-10-16T03:00:41;29.02;;;19.45;;
64520;SDS011;50896;46.714;17.322;2022-10-16T03:03:08;27.55;;;19.13;;
64520;SDS011;50896;46.714;17.322;2022-10-16T03:05:35;29.30;;;20.17;;
64520;SDS011;50896;46.714;17.322;2022-10-16T03:08:02;29.77;;;20.45;;
64520;SDS011;50896;46.714;17.322;2022-10-16T03:10:29;30.65;;;21.23;;
64520;SDS011;50896;46.714;17.322;2022-10-16T03:12:55;31.48;;;20.10;;
64520;SDS011;50896;46.714;17.322;2022-10-16T03:15:22;30.88;;;21.02;;
64520;SDS011;50896;46.714;17.322;2022-10-16T03:17:49;28.52;;;20.27;;
64520;SDS011;50896;46.714;17.322;2022-10-16T03:20:16;31.98;;;21.17;;
64520;SDS011;50896;46.714;17.322;2022-10-16T03:22:42;31.23;;;21.38;;
64520;SDS011;50896;46.714;17.322;2022-10-16T03:25:09;32.30;;;21.63;;
64520;SDS011;50896;46.714;17.322;2022-10-16T03:27:36;28.38;;;20.23;;
64520;SDS011;50896;46.714;17.322;2022-10-16T03:30:03;29.40;;;19.90;;
64520;SDS011;50896;46.714;17.322;2022-10-16T03:32:30;31.85;;;21.17;;
64520;SDS011;50896;46.714;17.322;2022-10-16T03:34:56;29.50;;;20.25;;
64520;SDS011;50896;46.714;17.322;2022-10-16T03:37:23;29.85;;;21.10;;
64520;SDS011;50896;46.714;17.322;2022-10-16T03:39:51;33.00;;;20.65;;
64520;SDS011;50896;46.714;17.322;2022-10-16T03:42:18;35.58;;;22.23;;
64520;SDS011;50896;46.714;17.322;2022-10-16T03:44:45;31.30;;;20.98;;
64520;SDS011;50896;46.714;17.322;2022-10-16T03:47:11;29.20;;;20.92;;
64520;SDS011;50896;46.714;17.322;2022-10-16T03:49:38;32.58;;;22.42;;
64520;SDS011;50896;46.714;17.322;2022-10-16T03:52:05;32.92;;;21.85;;
64520;SDS011;50896;46.714;17.322;2022-10-16T03:54:31;31.17;;;21.70;;
64520;SDS011;50896;46.714;17.322;2022-10-16T03:56:58;30.35;;;21.98;;
64520;SDS011;50896;46.714;17.322;2022-10-16T03:59:25;30.85;;;21.95;;
64520;SDS011;50896;46.714;17.322;2022-10-16T04:01:52;30.75;;;22.13;;
64520;SDS011;50896;46.714;17.322;2022-10-16T04:04:18;33.17;;;21.17;;
64520;SDS011;50896;46.714;17.322;2022-10-16T04:06:45;34.78;;;22.30;;
64520;SDS011;50896;46.714;17.322;2022-10-16T04:09:12;31.45;;;21.33;;
64520;SDS011;50896;46.714;17.322;2022-10-16T04:11:38;32.40;;;21.67;;
64520;SDS011;50896;46.714;17.322;2022-10-16T04:14:05;31.75;;;21.70;;
64520;SDS011;50896;46.714;17.322;2022-10-16T04:16:32;35.63;;;23.33;;
64520;SDS011;50896;46.714;17.322;2022-10-16T04:18:59;33.13;;;22.52;;
64520;SDS011;50896;46.714;17.322;2022-10-16T04:21:25;37.20;;;24.80;;
64520;SDS011;50896;46.714;17.322;2022-10-16T04:23:52;34.42;;;23.52;;
64520;SDS011;50896;46.714;17.322;2022-10-16T04:26:19;33.75;;;23.52;;
64520;SDS011;50896;46.714;17.322;2022-10-16T04:28:45;37.90;;;23.27;;
64520;SDS011;50896;46.714;17.322;2022-10-16T04:31:12;39.60;;;23.08;;
64520;SDS011;50896;46.714;17.322;2022-10-16T04:33:41;37.42;;;23.02;;
64520;SDS011;50896;46.714;17.322;2022-10-16T04:36:09;37.53;;;24.42;;
64520;SDS011;50896;46.714;17.322;2022-10-16T04:38:35;34.58;;;22.85;;
64520;SDS011;50896;46.714;17.322;2022-10-16T04:41:03;34.33;;;23.63;;
64520;SDS011;50896;46.714;17.322;2022-10-16T04:43:30;37.28;;;23.48;;
64520;SDS011;50896;46.714;17.322;2022-10-16T04:45:57;36.67;;;23.50;;
64520;SDS011;50896;46.714;17.322;2022-10-16T04:48:24;38.53;;;23.92;;
64520;SDS011;50896;46.714;17.322;2022-10-16T04:50:51;39.13;;;24.10;;
64520;SDS011;50896;46.714;17.322;2022-10-16T04:53:20;34.40;;;22.65;;
64520;SDS011;50896;46.714;17.322;2022-10-16T04:55:47;34.80;;;22.27;;
64520;SDS011;50896;46.714;17.322;2022-10-16T04:58:13;31.80;;;21.27;;
64520;SDS011;50896;46.714;17.322;2022-10-16T05:00:40;28.80;;;20.48;;
64520;SDS011;50896;46.714;17.322;2022-10-16T05:03:07;31.83;;;21.13;;
64520;SDS011;50896;46.714;17.322;2022-10-16T05:05:35;30.08;;;21.42;;
64520;SDS011;50896;46.714;17.322;2022-10-16T05:08:02;38.20;;;24.60;;
64520;SDS011;50896;46.714;17.322;2022-10-16T05:10:29;38.33;;;23.17;;
64520;SDS011;50896;46.714;17.322;2022-10-16T05:12:56;36.70;;;22.52;;
64520;SDS011;50896;46.714;17.322;2022-10-16T05:15:23;35.85;;;21.67;;
64520;SDS011;50896;46.714;17.322;2022-10-16T05:17:54;32.83;;;22.52;;
64520;SDS011;50896;46.714;17.322;2022-10-16T05:20:21;33.15;;;21.40;;
64520;SDS011;50896;46.714;17.322;2022-10-16T05:22:49;33.15;;;21.33;;
64520;SDS011;50896;46.714;17.322;2022-10-16T05:25:15;32.40;;;21.38;;
64520;SDS011;50896;46.714;17.322;2022-10-16T05:27:42;37.15;;;22.30;;
64520;SDS011;50896;46.714;17.322;2022-10-16T05:30:09;35.65;;;23.63;;
64520;SDS011;50896;46.714;17.322;2022-10-16T05:32:38;35.38;;;22.58;;
64520;SDS011;50896;46.714;17.322;2022-10-16T05:35:04;34.78;;;23.45;;
64520;SDS011;50896;46.714;17.322;2022-10-16T05:37:37;35.85;;;22.65;;
64520;SDS011;50896;46.714;17.322;2022-10-16T05:40:03;36.35;;;23.65;;
64520;SDS011;50896;46.714;17.322;2022-10-16T05:42:31;36.03;;;23.58;;
64520;SDS011;50896;46.714;17.322;2022-10-16T05:44:57;34.22;;;23.55;;
64520;SDS011;50896;46.714;17.322;2022-10-16T05:47:24;36.13;;;24.52;;
64520;SDS011;50896;46.714;17.322;2022-10-16T05:49:51;38.83;;;25.65;;
64520;SDS011;50896;46.714;17.322;2022-10-16T05:52:18;37.35;;;25.17;;
64520;SDS011;50896;46.714;17.322;2022-10-16T05:54:44;38.08;;;26.50;;
64520;SDS011;50896;46.714;17.322;2022-10-16T05:57:11;40.65;;;26.63;;
64520;SDS011;50896;46.714;17.322;2022-10-16T05:59:38;35.88;;;24.95;;
64520;SDS011;50896;46.714;17.322;2022-10-16T06:02:05;37.47;;;23.88;;
64520;SDS011;50896;46.714;17.322;2022-10-16T06:04:31;36.13;;;23.30;;
64520;SDS011;50896;46.714;17.322;2022-10-16T06:06:58;33.05;;;22.70;;
64520;SDS011;50896;46.714;17.322;2022-10-16T06:09:26;35.38;;;23.80;;
64520;SDS011;50896;46.714;17.322;2022-10-16T06:11:54;35.75;;;22.40;;
64520;SDS011;50896;46.714;17.322;2022-10-16T06:14:21;37.13;;;24.92;;
64520;SDS011;50896;46.714;17.322;2022-10-16T06:16:47;39.97;;;26.42;;
64520;SDS011;50896;46.714;17.322;2022-10-16T06:19:14;37.38;;;25.30;;
64520;SDS011;50896;46.714;17.322;2022-10-16T06:21:42;36.17;;;24.45;;
64520;SDS011;50896;46.714;17.322;2022-10-16T06:24:09;33.83;;;24.73;;
64520;SDS011;50896;46.714;17.322;2022-10-16T06:26:36;38.00;;;25.02;;
64520;SDS011;50896;46.714;17.322;2022-10-16T06:29:04;32.95;;;24.50;;
64520;SDS011;50896;46.714;17.322;2022-10-16T06:31:31;33.22;;;23.50;;
64520;SDS011;50896;46.714;17.322;2022-10-16T06:34:00;35.13;;;23.25;;
64520;SDS011;50896;46.714;17.322;2022-10-16T06:36:27;31.63;;;21.98;;
64520;SDS011;50896;46.714;17.322;2022-10-16T06:38:54;28.75;;;19.90;;
64520;SDS011;50896;46.714;17.322;2022-10-16T06:41:21;29.13;;;20.05;;
64520;SDS011;50896;46.714;17.322;2022-10-16T06:43:49;29.05;;;18.33;;
64520;SDS011;50896;46.714;17.322;2022-10-16T06:46:18;27.30;;;16.90;;
64520;SDS011;50896;46.714;17.322;2022-10-16T06:48:47;25.25;;;17.30;;
64520;SDS011;50896;46.714;17.322;2022-10-16T06:51:17;23.77;;;16.55;;
64520;SDS011;50896;46.714;17.322;2022-10-16T06:53:47;24.50;;;16.70;;
64520;SDS011;50896;46.714;17.322;2022-10-16T06:56:32;28.20;;;17.67;;
64520;SDS011;50896;46.714;17.322;2022-10-16T06:58:59;29.20;;;18.58;;
64520;SDS011;50896;46.714;17.322;2022-10-16T07:01:26;30.65;;;19.20;;
64520;SDS011;50896;46.714;17.322;2022-10-16T07:03:53;27.05;;;18.27;;
64520;SDS011;50896;46.714;17.322;2022-10-16T07:06:21;26.17;;;18.30;;
64520;SDS011;50896;46.714;17.322;2022-10-16T07:08:49;26.65;;;18.20;;
64520;SDS011;50896;46.714;17.322;2022-10-16T07:11:17;24.73;;;18.45;;
64520;SDS011;50896;46.714;17.322;2022-10-16T07:13:46;25.47;;;18.17;;
64520;SDS011;50896;46.714;17.322;2022-10-16T07:16:31;28.23;;;18.25;;
64520;SDS011;50896;46.714;17.322;2022-10-16T07:19:00;25.80;;;18.55;;
64520;SDS011;50896;46.714;17.322;2022-10-16T07:21:31;25.88;;;16.77;;
64520;SDS011;50896;46.714;17.322;2022-10-16T07:24:02;29.45;;;19.83;;
64520;SDS011;50896;46.714;17.322;2022-10-16T07:26:34;27.70;;;18.95;;
64520;SDS011;50896;46.714;17.322;2022-10-16T07:29:02;31.85;;;19.02;;
64520;SDS011;50896;46.714;17.322;2022-10-16T07:31:30;27.42;;;19.02;;
64520;SDS011;50896;46.714;17.322;2022-10-16T07:33:58;33.10;;;19.58;;
64520;SDS011;50896;46.714;17.322;2022-10-16T07:36:26;31.23;;;17.67;;
64520;SDS011;50896;46.714;17.322;2022-10-16T07:38:52;28.13;;;16.50;;
64520;SDS011;50896;46.714;17.322;2022-10-16T07:41:25;27.23;;;16.92;;
64520;SDS011;50896;46.714;17.322;2022-10-16T07:43:52;23.55;;;16.88;;
64520;SDS011;50896;46.714;17.322;2022-10-16T07:46:20;28.73;;;20.20;;
64520;SDS011;50896;46.714;17.322;2022-10-16T07:48:47;45.65;;;24.92;;
64520;SDS011;50896;46.714;17.322;2022-10-16T07:51:16;38.42;;;22.25;;
64520;SDS011;50896;46.714;17.322;2022-10-16T07:53:44;30.63;;;18.98;;
64520;SDS011;50896;46.714;17.322;2022-10-16T07:56:11;43.25;;;27.88;;
64520;SDS011;50896;46.714;17.322;2022-10-16T07:58:39;35.38;;;21.88;;
64520;SDS011;50896;46.714;17.322;2022-10-16T08:01:06;37.33;;;25.38;;
64520;SDS011;50896;46.714;17.322;2022-10-16T08:03:35;59.15;;;39.05;;
64520;SDS011;50896;46.714;17.322;2022-10-16T08:06:02;82.68;;;51.97;;
64520;SDS011;50896;46.714;17.322;2022-10-16T08:08:30;70.18;;;41.67;;
64520;SDS011;50896;46.714;17.322;2022-10-16T08:10:57;36.15;;;21.80;;
64520;SDS011;50896;46.714;17.322;2022-10-16T08:13:24;36.00;;;20.80;;
64520;SDS011;50896;46.714;17.322;2022-10-16T08:15:50;32.88;;;20.50;;
64520;SDS011;50896;46.714;17.322;2022-10-16T08:18:19;28.58;;;19.08;;
64520;SDS011;50896;46.714;17.322;2022-10-16T08:20:46;31.02;;;19.30;;
64520;SDS011;50896;46.714;17.322;2022-10-16T08:23:12;29.85;;;17.95;;
64520;SDS011;50896;46.714;17.322;2022-10-16T08:25:40;28.20;;;18.95;;
64520;SDS011;50896;46.714;17.322;2022-10-16T08:28:08;32.25;;;17.90;;
64520;SDS011;50896;46.714;17.322;2022-10-16T08:30:36;26.80;;;17.30;;
64520;SDS011;50896;46.714;17.322;2022-10-16T08:33:03;26.05;;;17.73;;
64520;SDS011;50896;46.714;17.322;2022-10-16T08:35:30;27.90;;;16.98;;
64520;SDS011;50896;46.714;17.322;2022-10-16T08:37:57;24.30;;;16.58;;
64520;SDS011;50896;46.714;17.322;2022-10-16T08:40:25;24.17;;;15.77;;
64520;SDS011;50896;46.714;17.322;2022-10-16T08:48:35;50.50;;;25.48;;
64520;SDS011;50896;46.714;17.322;2022-10-16T08:51:12;31.38;;;18.75;;
64520;SDS011;50896;46.714;17.322;2022-10-16T08:56:49;29.45;;;17.50;;
64520;SDS011;50896;46.714;17.322;2022-10-16T08:59:16;23.83;;;17.27;;
64520;SDS011;50896;46.714;17.322;2022-10-16T09:01:47;25.20;;;17.98;;
64520;SDS011;50896;46.714;17.322;2022-10-16T09:06:56;26.73;;;17.33;;
64520;SDS011;50896;46.714;17.322;2022-10-16T09:09:49;23.13;;;15.60;;
64520;SDS011;50896;46.714;17.322;2022-10-16T09:12:40;22.70;;;15.30;;
64520;SDS011;50896;46.714;17.322;2022-10-16T09:18:10;24.55;;;16.40;;
64520;SDS011;50896;46.714;17.322;2022-10-16T09:20:56;23.45;;;16.27;;
64520;SDS011;50896;46.714;17.322;2022-10-16T09:23:36;33.50;;;16.20;;
64520;SDS011;50896;46.714;17.322;2022-10-16T09:26:03;25.27;;;16.20;;
64520;SDS011;50896;46.714;17.322;2022-10-16T09:28:35;24.25;;;15.80;;
64520;SDS011;50896;46.714;17.322;2022-10-16T09:31:02;23.63;;;15.43;;
64520;SDS011;50896;46.714;17.322;2022-10-16T09:33:29;28.45;;;15.88;;
64520;SDS011;50896;46.714;17.322;2022-10-16T09:36:03;26.85;;;16.85;;
64520;SDS011;50896;46.714;17.322;2022-10-16T09:38:35;27.25;;;17.45;;
64520;SDS011;50896;46.714;17.322;2022-10-16T09:41:23;25.75;;;17.80;;
64520;SDS011;50896;46.714;17.322;2022-10-16T09:43:55;24.30;;;17.10;;
64520;SDS011;50896;46.714;17.322;2022-10-16T09:46:25;27.60;;;17.73;;
64520;SDS011;50896;46.714;17.322;2022-10-16T09:48:58;26.45;;;16.80;;
64520;SDS011;50896;46.714;17.322;2022-10-16T09:51:29;31.63;;;18.88;;
64520;SDS011;50896;46.714;17.322;2022-10-16T09:54:10;29.98;;;18.77;;
64520;SDS011;50896;46.714;17.322;2022-10-16T09:56:40;28.90;;;19.23;;
64520;SDS011;50896;46.714;17.322;2022-10-16T09:59:10;28.38;;;20.48;;
64520;SDS011;50896;46.714;17.322;2022-10-16T10:01:42;29.92;;;19.50;;
64520;SDS011;50896;46.714;17.322;2022-10-16T10:04:12;28.85;;;18.02;;
64520;SDS011;50896;46.714;17.322;2022-10-16T10:09:18;27.80;;;19.05;;
64520;SDS011;50896;46.714;17.322;2022-10-16T10:11:48;25.80;;;18.60;;
64520;SDS011;50896;46.714;17.322;2022-10-16T10:14:18;25.48;;;18.33;;
64520;SDS011;50896;46.714;17.322;2022-10-16T10:16:46;27.42;;;19.23;;
64520;SDS011;50896;46.714;17.322;2022-10-16T10:19:23;27.00;;;18.80;;
64520;SDS011;50896;46.714;17.322;2022-10-16T10:21:55;25.30;;;17.85;;
64520;SDS011;50896;46.714;17.322;2022-10-16T10:24:22;22.85;;;15.60;;
64520;SDS011;50896;46.714;17.322;2022-10-16T10:26:51;25.27;;;16.33;;
64520;SDS011;50896;46.714;17.322;2022-10-16T10:32:25;22.88;;;15.48;;
64520;SDS011;50896;46.714;17.322;2022-10-16T10:35:20;22.27;;;16.10;;
64520;SDS011;50896;46.714;17.322;2022-10-16T10:38:00;22.73;;;16.52;;
64520;SDS011;50896;46.714;17.322;2022-10-16T10:40:39;23.45;;;15.85;;
64520;SDS011;50896;46.714;17.322;2022-10-16T10:43:24;21.10;;;15.93;;
64520;SDS011;50896;46.714;17.322;2022-10-16T10:46:23;20.88;;;15.48;;
64520;SDS011;50896;46.714;17.322;2022-10-16T10:49:19;21.65;;;15.43;;
64520;SDS011;50896;46.714;17.322;2022-10-16T11:00:13;22.77;;;15.90;;
64520;SDS011;50896;46.714;17.322;2022-10-16T11:02:54;25.25;;;16.20;;
64520;SDS011;50896;46.714;17.322;2022-10-16T11:05:44;22.35;;;15.20;;
64520;SDS011;50896;46.714;17.322;2022-10-16T11:08:17;19.70;;;15.27;;
64520;SDS011;50896;46.714;17.322;2022-10-16T11:10:53;21.88;;;15.35;;
64520;SDS011;50896;46.714;17.322;2022-10-16T11:13:33;20.38;;;14.18;;
64520;SDS011;50896;46.714;17.322;2022-10-16T11:25:05;21.23;;;15.02;;
64520;SDS011;50896;46.714;17.322;2022-10-16T11:27:44;23.58;;;15.95;;
64520;SDS011;50896;46.714;17.322;2022-10-16T11:30:24;21.98;;;15.43;;
64520;SDS011;50896;46.714;17.322;2022-10-16T11:35:39;23.10;;;16.20;;
64520;SDS011;50896;46.714;17.322;2022-10-16T11:38:13;26.17;;;16.40;;
64520;SDS011;50896;46.714;17.322;2022-10-16T11:41:14;24.55;;;16.77;;
64520;SDS011;50896;46.714;17.322;2022-10-16T11:44:06;25.08;;;16.67;;
64520;SDS011;50896;46.714;17.322;2022-10-16T11:46:57;26.60;;;16.75;;
64520;SDS011;50896;46.714;17.322;2022-10-16T11:49:49;22.15;;;15.50;;
64520;SDS011;50896;46.714;17.322;2022-10-16T11:55:16;22.83;;;15.55;;
64520;SDS011;50896;46.714;17.322;2022-10-16T11:57:54;22.25;;;14.75;;
64520;SDS011;50896;46.714;17.322;2022-10-16T12:00:30;23.90;;;15.82;;
64520;SDS011;50896;46.714;17.322;2022-10-16T12:03:19;27.25;;;15.73;;
64520;SDS011;50896;46.714;17.322;2022-10-16T12:08:35;24.50;;;15.13;;
64520;SDS011;50896;46.714;17.322;2022-10-16T12:11:06;22.58;;;15.10;;
64520;SDS011;50896;46.714;17.322;2022-10-16T12:13:36;22.52;;;15.02;;
64520;SDS011;50896;46.714;17.322;2022-10-16T12:18:38;20.85;;;14.40;;
64520;SDS011;50896;46.714;17.322;2022-10-16T12:21:06;18.08;;;13.88;;
64520;SDS011;50896;46.714;17.322;2022-10-16T12:23:37;21.10;;;14.82;;
64520;SDS011;50896;46.714;17.322;2022-10-16T12:26:14;27.23;;;15.80;;
64520;SDS011;50896;46.714;17.322;2022-10-16T12:28:50;22.73;;;15.52;;
64520;SDS011;50896;46.714;17.322;2022-10-16T12:31:18;25.40;;;15.73;;
64520;SDS011;50896;46.714;17.322;2022-10-16T12:33:58;22.00;;;14.82;;
64520;SDS011;50896;46.714;17.322;2022-10-16T12:36:31;21.10;;;14.73;;
64520;SDS011;50896;46.714;17.322;2022-10-16T12:39:00;21.13;;;16.08;;
64520;SDS011;50896;46.714;17.322;2022-10-16T12:41:32;24.13;;;15.48;;
64520;SDS011;50896;46.714;17.322;2022-10-16T12:44:01;25.92;;;15.38;;
64520;SDS011;50896;46.714;17.322;2022-10-16T12:51:55;22.45;;;14.95;;
64520;SDS011;50896;46.714;17.322;2022-10-16T12:54:25;22.60;;;15.68;;
64520;SDS011;50896;46.714;17.322;2022-10-16T13:02:14;21.83;;;16.38;;
64520;SDS011;50896;46.714;17.322;2022-10-16T13:05:13;26.48;;;16.30;;
64520;SDS011;50896;46.714;17.322;2022-10-16T13:15:54;24.20;;;15.90;;
64520;SDS011;50896;46.714;17.322;2022-10-16T13:18:38;26.48;;;19.70;;
64520;SDS011;50896;46.714;17.322;2022-10-16T13:21:14;24.00;;;16.38;;
64520;SDS011;50896;46.714;17.322;2022-10-16T13:26:49;23.35;;;16.48;;
64520;SDS011;50896;46.714;17.322;2022-10-16T13:29:23;24.25;;;16.92;;
64520;SDS011;50896;46.714;17.322;2022-10-16T13:31:50;24.00;;;17.23;;
64520;SDS011;50896;46.714;17.322;2022-10-16T13:34:18;20.92;;;15.38;;
64520;SDS011;50896;46.714;17.322;2022-10-16T13:36:48;20.85;;;14.40;;
64520;SDS011;50896;46.714;17.322;2022-10-16T13:44:36;21.45;;;15.00;;
64520;SDS011;50896;46.714;17.322;2022-10-16T13:49:46;22.45;;;16.50;;
64520;SDS011;50896;46.714;17.322;2022-10-16T13:52:17;21.75;;;16.30;;
64520;SDS011;50896;46.714;17.322;2022-10-16T13:54:46;22.75;;;17.48;;
64520;SDS011;50896;46.714;17.322;2022-10-16T13:57:14;23.80;;;16.17;;
64520;SDS011;50896;46.714;17.322;2022-10-16T13:59:53;23.13;;;17.25;;
64520;SDS011;50896;46.714;17.322;2022-10-16T14:02:27;28.25;;;17.50;;
64520;SDS011;50896;46.714;17.322;2022-10-16T14:05:01;23.17;;;16.92;;
64520;SDS011;50896;46.714;17.322;2022-10-16T14:07:33;23.38;;;15.77;;
64520;SDS011;50896;46.714;17.322;2022-10-16T14:10:05;24.02;;;16.55;;
64520;SDS011;50896;46.714;17.322;2022-10-16T14:12:44;21.60;;;15.75;;
64520;SDS011;50896;46.714;17.322;2022-10-16T14:15:15;25.67;;;16.55;;
64520;SDS011;50896;46.714;17.322;2022-10-16T14:17:47;23.13;;;16.17;;
64520;SDS011;50896;46.714;17.322;2022-10-16T14:20:17;24.58;;;16.50;;
64520;SDS011;50896;46.714;17.322;2022-10-16T14:22:45;21.60;;;16.52;;
64520;SDS011;50896;46.714;17.322;2022-10-16T14:27:55;22.45;;;16.35;;
64520;SDS011;50896;46.714;17.322;2022-10-16T14:30:33;22.52;;;17.27;;
64520;SDS011;50896;46.714;17.322;2022-10-16T14:33:06;25.80;;;17.55;;
64520;SDS011;50896;46.714;17.322;2022-10-16T14:35:46;26.10;;;17.50;;
64520;SDS011;50896;46.714;17.322;2022-10-16T14:38:22;25.15;;;17.00;;
64520;SDS011;50896;46.714;17.322;2022-10-16T14:40:49;23.48;;;16.33;;
64520;SDS011;50896;46.714;17.322;2022-10-16T14:43:38;26.48;;;17.25;;
64520;SDS011;50896;46.714;17.322;2022-10-16T14:46:14;24.77;;;18.30;;
64520;SDS011;50896;46.714;17.322;2022-10-16T14:48:47;22.98;;;17.58;;
64520;SDS011;50896;46.714;17.322;2022-10-16T14:51:17;29.60;;;18.20;;
64520;SDS011;50896;46.714;17.322;2022-10-16T14:53:45;27.80;;;18.58;;
64520;SDS011;50896;46.714;17.322;2022-10-16T14:56:14;26.80;;;19.77;;
64520;SDS011;50896;46.714;17.322;2022-10-16T14:58:44;23.52;;;17.95;;
64520;SDS011;50896;46.714;17.322;2022-10-16T15:01:11;24.75;;;18.40;;
64520;SDS011;50896;46.714;17.322;2022-10-16T15:03:38;25.13;;;18.65;;
64520;SDS011;50896;46.714;17.322;2022-10-16T15:06:12;23.75;;;17.63;;
64520;SDS011;50896;46.714;17.322;2022-10-16T15:08:40;22.83;;;17.88;;
64520;SDS011;50896;46.714;17.322;2022-10-16T15:11:10;25.33;;;18.83;;
64520;SDS011;50896;46.714;17.322;2022-10-16T15:13:39;23.50;;;18.05;;
64520;SDS011;50896;46.714;17.322;2022-10-16T15:16:08;23.77;;;17.98;;
64520;SDS011;50896;46.714;17.322;2022-10-16T15:18:37;24.40;;;18.20;;
64520;SDS011;50896;46.714;17.322;2022-10-16T15:21:04;24.88;;;17.88;;
64520;SDS011;50896;46.714;17.322;2022-10-16T15:23:31;23.92;;;19.08;;
64520;SDS011;50896;46.714;17.322;2022-10-16T15:25:58;24.33;;;18.77;;
64520;SDS011;50896;46.714;17.322;2022-10-16T15:28:25;22.08;;;17.65;;
64520;SDS011;50896;46.714;17.322;2022-10-16T15:30:53;25.73;;;19.80;;
64520;SDS011;50896;46.714;17.322;2022-10-16T15:33:22;26.08;;;18.52;;
64520;SDS011;50896;46.714;17.322;2022-10-16T15:35:54;22.60;;;17.95;;
64520;SDS011;50896;46.714;17.322;2022-10-16T15:38:22;23.70;;;18.50;;
64520;SDS011;50896;46.714;17.322;2022-10-16T15:40:49;22.58;;;18.55;;
64520;SDS011;50896;46.714;17.322;2022-10-16T15:43:16;24.77;;;19.10;;
64520;SDS011;50896;46.714;17.322;2022-10-16T15:45:46;24.38;;;18.77;;
64520;SDS011;50896;46.714;17.322;2022-10-16T15:48:26;23.33;;;18.83;;
64520;SDS011;50896;46.714;17.322;2022-10-16T15:50:53;26.50;;;19.77;;
64520;SDS011;50896;46.714;17.322;2022-10-16T15:53:19;24.90;;;18.55;;
64520;SDS011;50896;46.714;17.322;2022-10-16T15:55:46;24.38;;;18.00;;
64520;SDS011;50896;46.714;17.322;2022-10-16T15:58:13;27.33;;;20.20;;
64520;SDS011;50896;46.714;17.322;2022-10-16T16:00:39;24.38;;;19.60;;
64520;SDS011;50896;46.714;17.322;2022-10-16T16:03:06;23.63;;;18.77;;
64520;SDS011;50896;46.714;17.322;2022-10-16T16:05:33;27.42;;;19.45;;
64520;SDS011;50896;46.714;17.322;2022-10-16T16:08:06;31.58;;;22.05;;
64520;SDS011;50896;46.714;17.322;2022-10-16T16:10:33;28.02;;;22.27;;
64520;SDS011;50896;46.714;17.322;2022-10-16T16:13:00;28.50;;;21.75;;
64520;SDS011;50896;46.714;17.322;2022-10-16T16:15:27;29.20;;;22.23;;
64520;SDS011;50896;46.714;17.322;2022-10-16T16:17:53;29.08;;;23.25;;